Forside
METAR-TAF:

METAR-TAF

Lufthavne :

Irkutsk, Rusland

Breddekreds: 52-16N, længdekreds: 104-19E, højde: 513 m

Aktuelle vejr

Denne rapport blev lavet for 21 minutter siden, kl. 11:00 UTC
Vind 10 kt fra syd
Temperatur 8°C
Fugtighed 66%
Tryk 1019 hPa
Sigt 10 km eller mere
ingen skyer under 1500m og ingen cumulonimbus

METAR: UIII 171100Z 17005MPS CAVOK 08/02 Q1019 R12/60D NOSIG RMK QFE722/0963

Tid: 19:21 (11:21 UTC)

Vejrudsigter

Denne rapport blev lavet for 3 timer og 21 minutter siden, kl. 08:00 UTC
Foreløbig gælder fra 17 på 09 UTC til 18 på 09 UTC
Vind 10 kt fra sydsydøst
Sigt 10 km eller mere
ændring
fra 17 på 10 UTC til 17 på 12 UTC
Vind 6 kt fra øst

TAF: UIII 170800Z 1709/1809 16005MPS 9999 NSC BECMG 1710/1712 08003MPS

Vejrobservationer og prognoser fra mere end 4000 lufthavne (METAR og TAF).

De gule og røde prikker repræsenterer de meteorologiske stationer.

Flyt musen over at se navnet på stationen.

Så klik over at se vejr observationer og prognoser.

At skifte det kort: Klik på de grønne knapper med et sort kors for at zoome ind; på den grønne knap med en bindestreg for at zoome ud; eller på de grønne pile for tilstødende kort.


METAR-TAF: